createdAt,value
2019-05-16T00:00:29.260Z,1.20
2019-05-16T00:02:58.881Z,1.35
2019-05-16T00:07:59.115Z,1.30
2019-05-16T00:10:28.096Z,1.60
2019-05-16T00:17:54.670Z,1.30
2019-05-16T00:20:23.501Z,1.33
2019-05-16T00:22:52.614Z,1.25
2019-05-16T00:25:21.434Z,1.37
2019-05-16T00:27:50.176Z,1.20
2019-05-16T00:30:19.100Z,1.40
2019-05-16T00:32:48.283Z,1.40
2019-05-16T00:35:18.273Z,1.35
2019-05-16T00:37:48.328Z,1.50
2019-05-16T00:40:18.794Z,1.20
2019-05-16T00:42:49.216Z,1.02
2019-05-16T00:45:18.679Z,1.40
2019-05-16T00:47:48.139Z,1.42
2019-05-16T00:50:18.344Z,1.80
2019-05-16T00:52:48.762Z,1.12
2019-05-16T00:55:18.077Z,1.22
2019-05-16T00:57:48.320Z,1.50
2019-05-16T01:00:18.785Z,1.20
2019-05-16T01:02:48.555Z,1.45
2019-05-16T01:05:19.128Z,1.52
2019-05-16T01:07:48.236Z,1.25
2019-05-16T01:10:18.372Z,1.52
2019-05-16T01:12:48.091Z,1.40
2019-05-16T01:17:48.452Z,1.20
2019-05-16T01:20:19.275Z,1.00
2019-05-16T01:22:49.000Z,1.25
2019-05-16T01:25:19.530Z,1.22
2019-05-16T01:27:48.498Z,1.20
2019-05-16T01:30:18.677Z,1.27
2019-05-16T01:32:49.143Z,1.30
2019-05-16T01:35:18.839Z,1.05
2019-05-16T01:42:49.006Z,1.20
2019-05-16T01:45:18.949Z,0.93
2019-05-16T01:47:48.264Z,1.20
2019-05-16T01:50:18.048Z,1.47
2019-05-16T01:52:48.746Z,1.50
2019-05-16T01:55:18.712Z,1.20
2019-05-16T01:57:48.212Z,1.42
2019-05-16T02:00:23.628Z,1.40
2019-05-16T02:02:48.749Z,1.25
2019-05-16T02:05:18.782Z,1.00
2019-05-16T02:07:48.002Z,1.20
2019-05-16T02:10:18.051Z,1.50
2019-05-16T02:12:49.073Z,1.30
2019-05-16T02:15:18.341Z,1.00
2019-05-16T02:17:48.548Z,1.27
2019-05-16T02:20:18.027Z,1.12
2019-05-16T02:22:48.157Z,1.40
2019-05-16T02:25:18.683Z,1.10
2019-05-16T02:27:48.810Z,1.42
2019-05-16T02:30:21.680Z,1.20
2019-05-16T02:32:52.191Z,1.22
2019-05-16T02:35:20.973Z,1.17
2019-05-16T02:37:54.757Z,1.30
2019-05-16T02:40:22.545Z,1.50
2019-05-16T02:42:51.686Z,1.17
2019-05-16T02:45:24.418Z,1.25
2019-05-16T02:47:51.523Z,1.15
2019-05-16T02:50:22.392Z,1.10
2019-05-16T02:52:51.661Z,1.32
2019-05-16T02:55:21.652Z,1.02
2019-05-16T02:57:51.026Z,1.20
2019-05-16T03:00:31.895Z,1.20
2019-05-16T03:03:01.273Z,1.27
2019-05-16T03:05:30.639Z,1.20
2019-05-16T03:08:01.304Z,1.10
2019-05-16T03:10:31.147Z,1.20
2019-05-16T03:13:00.849Z,1.20
2019-05-16T03:15:30.964Z,1.25
2019-05-16T03:18:03.776Z,1.20
2019-05-16T03:20:33.346Z,1.07
2019-05-16T03:23:02.485Z,1.00
2019-05-16T03:25:31.492Z,1.10
2019-05-16T03:28:01.940Z,1.63
2019-05-16T03:30:35.123Z,1.25
2019-05-16T03:33:04.959Z,1.40
2019-05-16T03:35:34.119Z,1.60
2019-05-16T03:38:05.382Z,1.20
2019-05-16T03:40:35.170Z,1.30
2019-05-16T03:43:03.925Z,1.17
2019-05-16T03:45:32.790Z,2.13
2019-05-16T03:48:02.803Z,1.20
2019-05-16T03:50:31.963Z,1.30
2019-05-16T03:53:01.596Z,1.20
2019-05-16T03:55:32.573Z,1.45
2019-05-16T03:58:01.426Z,1.10
2019-05-16T04:00:53.530Z,1.30
2019-05-16T04:03:22.975Z,1.15
2019-05-16T04:05:52.911Z,0.95
2019-05-16T04:08:25.101Z,1.30
2019-05-16T04:10:52.670Z,1.65
2019-05-16T04:13:22.054Z,1.47
2019-05-16T04:15:52.375Z,1.30
2019-05-16T04:18:31.828Z,1.12
2019-05-16T04:21:06.085Z,1.32
2019-05-16T04:23:35.309Z,1.20
2019-05-16T04:26:04.207Z,0.80
2019-05-16T04:28:34.987Z,1.50
2019-05-16T04:31:03.740Z,1.27
2019-05-16T04:33:32.402Z,1.10
2019-05-16T04:36:01.501Z,1.17
2019-05-16T04:38:40.334Z,1.20
2019-05-16T04:41:01.473Z,1.10
2019-05-16T04:43:31.619Z,1.30
2019-05-16T04:46:01.318Z,1.12
2019-05-16T04:48:31.275Z,0.98
2019-05-16T04:51:01.390Z,1.55
2019-05-16T04:53:31.809Z,1.30
2019-05-16T04:56:01.816Z,1.60
2019-05-16T04:58:31.698Z,0.90
2019-05-16T05:01:01.704Z,1.22
2019-05-16T05:03:31.645Z,1.30
2019-05-16T05:06:01.206Z,1.87
2019-05-16T05:08:30.824Z,1.62
2019-05-16T05:11:01.363Z,2.20
2019-05-16T05:13:30.785Z,1.30
2019-05-16T05:16:01.275Z,2.55
2019-05-16T05:18:30.405Z,2.40
2019-05-16T05:21:00.968Z,1.50
2019-05-16T05:23:30.229Z,1.77
2019-05-16T05:26:00.359Z,1.10
2019-05-16T05:28:29.901Z,1.98
2019-05-16T05:33:30.308Z,1.85
2019-05-16T05:36:00.786Z,1.10
2019-05-16T05:38:31.076Z,1.20
2019-05-16T05:41:00.195Z,1.17
2019-05-16T05:48:30.521Z,1.52
2019-05-16T05:51:00.229Z,1.47
2019-05-16T05:53:30.042Z,1.32
2019-05-16T05:56:00.497Z,1.57
2019-05-16T05:58:30.865Z,1.37
2019-05-16T06:01:00.807Z,1.47
2019-05-16T06:03:32.820Z,1.25
2019-05-16T06:06:01.049Z,1.00
2019-05-16T06:08:30.558Z,1.40
2019-05-16T06:16:00.176Z,1.47
2019-05-16T06:18:30.612Z,1.25
2019-05-16T06:21:00.436Z,0.90
2019-05-16T06:23:31.079Z,1.47
2019-05-16T06:26:00.500Z,1.82
2019-05-16T06:28:30.752Z,1.50
2019-05-16T06:31:01.874Z,3.05
2019-05-16T06:33:30.638Z,1.75
2019-05-16T06:36:00.323Z,1.10
2019-05-16T06:38:29.926Z,2.40
2019-05-16T06:41:00.340Z,0.93
2019-05-16T06:43:30.061Z,1.37
2019-05-16T06:46:00.578Z,1.50
2019-05-16T06:48:30.340Z,1.65
2019-05-16T06:51:03.045Z,1.85
2019-05-16T06:53:30.032Z,1.30
2019-05-16T06:56:00.174Z,2.12
2019-05-16T06:58:30.298Z,1.82
2019-05-16T07:01:02.809Z,1.47
2019-05-16T07:03:30.879Z,1.50
2019-05-16T07:06:00.495Z,2.17
2019-05-16T07:08:30.975Z,2.40
2019-05-16T07:11:00.075Z,1.65
2019-05-16T07:13:30.325Z,1.40
2019-05-16T07:16:00.463Z,1.52
2019-05-16T07:18:31.106Z,1.75
2019-05-16T07:21:00.255Z,1.50
2019-05-16T07:23:29.858Z,1.40
2019-05-16T07:26:00.857Z,1.30
2019-05-16T07:28:30.033Z,1.80
2019-05-16T07:31:02.765Z,1.10
2019-05-16T07:33:31.269Z,1.45
2019-05-16T07:36:00.359Z,1.00
2019-05-16T07:38:30.862Z,1.67
2019-05-16T07:40:59.952Z,1.67
2019-05-16T07:43:30.872Z,1.40
2019-05-16T07:46:00.463Z,1.30
2019-05-16T07:48:31.794Z,1.35
2019-05-16T07:51:00.530Z,1.90
2019-05-16T07:53:30.432Z,2.00
2019-05-16T07:56:00.183Z,1.67
2019-05-16T07:58:31.343Z,1.55
2019-05-16T08:01:04.521Z,1.00
2019-05-16T08:03:30.382Z,1.92
2019-05-16T08:06:01.796Z,1.00
2019-05-16T08:08:31.482Z,1.22
2019-05-16T08:11:01.445Z,1.22
2019-05-16T08:13:31.000Z,1.32
2019-05-16T08:16:01.104Z,1.00
2019-05-16T08:18:30.588Z,0.85
2019-05-16T08:23:30.694Z,1.22
2019-05-16T08:26:01.238Z,1.35
2019-05-16T08:28:30.980Z,0.90
2019-05-16T08:31:00.948Z,0.93
2019-05-16T08:33:31.913Z,2.92
2019-05-16T08:38:31.011Z,1.00
2019-05-16T08:43:31.559Z,1.02
2019-05-16T08:46:01.203Z,1.10
2019-05-16T08:50:05.720Z,1.22
2019-05-16T08:50:06.253Z,0.88
2019-05-16T08:50:11.305Z,1.22
2019-05-16T08:51:02.837Z,1.10
2019-05-16T08:53:31.822Z,1.00
2019-05-16T08:56:02.566Z,1.07
2019-05-16T08:58:33.229Z,1.22
2019-05-16T09:01:02.485Z,0.90
2019-05-16T09:03:32.274Z,1.20
2019-05-16T09:06:02.847Z,1.42
2019-05-16T09:08:31.919Z,1.60
2019-05-16T09:10:38.789Z,1.40
2019-05-16T09:11:04.777Z,1.50
2019-05-16T09:13:31.032Z,1.35
2019-05-16T09:15:59.781Z,1.35
2019-05-16T09:18:29.121Z,0.90
2019-05-16T09:20:58.215Z,2.47
2019-05-16T09:23:27.167Z,1.35
2019-05-16T09:25:58.448Z,1.45
2019-05-16T09:28:28.301Z,2.05
2019-05-16T09:30:57.776Z,1.50
2019-05-16T09:33:27.120Z,1.30
2019-05-16T09:35:57.219Z,0.85
2019-05-16T09:38:28.523Z,1.20
2019-05-16T09:40:57.142Z,1.10
2019-05-16T09:43:28.074Z,1.20
2019-05-16T09:46:03.444Z,1.30
2019-05-16T09:48:30.713Z,1.00
2019-05-16T09:50:57.854Z,1.57
2019-05-16T09:55:57.621Z,1.20
2019-05-16T09:58:27.759Z,1.50
2019-05-16T10:00:57.469Z,1.32
2019-05-16T10:03:27.080Z,2.22
2019-05-16T10:05:57.137Z,1.37
2019-05-16T10:08:26.740Z,1.50
2019-05-16T10:10:57.154Z,1.90
2019-05-16T10:13:27.625Z,1.22
2019-05-16T10:15:56.347Z,1.20
2019-05-16T10:18:27.500Z,1.12
2019-05-16T10:20:59.023Z,1.40
2019-05-16T10:23:28.242Z,1.62
2019-05-16T10:25:56.787Z,1.30
2019-05-16T10:30:56.853Z,1.02
2019-05-16T10:33:27.541Z,1.25
2019-05-16T10:35:57.979Z,1.47
2019-05-16T10:38:28.499Z,1.30
2019-05-16T10:40:57.017Z,1.10
2019-05-16T10:43:26.506Z,1.40
2019-05-16T10:45:55.482Z,1.05
2019-05-16T10:48:26.767Z,1.27
2019-05-16T10:50:57.330Z,0.95
2019-05-16T10:53:55.669Z,1.40
2019-05-16T10:55:57.179Z,1.12
2019-05-16T10:58:36.393Z,1.50
2019-05-16T11:01:24.391Z,1.62
2019-05-16T11:03:27.616Z,1.55
2019-05-16T11:06:05.534Z,1.98
2019-05-16T11:08:27.084Z,1.50
2019-05-16T11:10:57.097Z,1.57
2019-05-16T11:13:28.097Z,1.47
2019-05-16T11:15:56.409Z,1.47
2019-05-16T11:18:27.122Z,2.05
2019-05-16T11:20:58.042Z,1.52
2019-05-16T11:23:30.925Z,1.15
2019-05-16T11:25:58.471Z,1.15
2019-05-16T11:28:27.388Z,1.30
2019-05-16T11:31:02.537Z,1.42
2019-05-16T11:33:28.100Z,1.37
2019-05-16T11:35:57.177Z,1.80
2019-05-16T11:38:25.976Z,2.22
2019-05-16T11:40:56.816Z,1.85
2019-05-16T11:43:25.091Z,0.98
2019-05-16T11:45:53.763Z,1.10
2019-05-16T11:48:25.235Z,1.20
2019-05-16T11:50:52.918Z,0.95
2019-05-16T11:53:21.740Z,5.08
2019-05-16T11:55:56.388Z,1.65
2019-05-16T11:58:20.937Z,1.47
2019-05-16T12:00:50.115Z,1.60
2019-05-16T12:03:18.891Z,1.00
2019-05-16T12:05:48.518Z,1.90
2019-05-16T12:08:17.688Z,1.67
2019-05-16T12:10:47.250Z,1.02
2019-05-16T12:13:25.363Z,1.32
2019-05-16T12:15:46.625Z,1.65
2019-05-16T12:18:17.316Z,1.50
2019-05-16T12:20:45.828Z,1.25
2019-05-16T12:23:16.887Z,1.32
2019-05-16T12:25:47.464Z,4.60
2019-05-16T12:28:16.944Z,3.52
2019-05-16T12:30:47.234Z,3.12
2019-05-16T12:33:18.715Z,3.58
2019-05-16T12:35:47.442Z,5.20
2019-05-16T12:38:17.230Z,1.60
2019-05-16T12:40:47.972Z,1.57
2019-05-16T12:43:18.071Z,1.65
2019-05-16T12:45:47.451Z,2.00
2019-05-16T12:48:19.924Z,1.57
2019-05-16T12:50:47.966Z,1.60
2019-05-16T12:53:17.059Z,1.82
2019-05-16T12:55:47.651Z,1.85
2019-05-16T12:58:24.884Z,1.70
2019-05-16T13:00:54.224Z,1.57
2019-05-16T13:03:17.096Z,1.70
2019-05-16T13:05:47.801Z,1.90
2019-05-16T13:08:17.472Z,1.60
2019-05-16T13:10:47.091Z,1.60
2019-05-16T13:13:17.807Z,1.70
2019-05-16T13:15:47.532Z,1.20
2019-05-16T13:18:17.016Z,1.20
2019-05-16T13:20:46.749Z,1.20
2019-05-16T13:23:18.232Z,1.40
2019-05-16T13:25:48.131Z,1.35
2019-05-16T13:28:16.810Z,1.32
2019-05-16T13:30:47.095Z,1.50
2019-05-16T13:33:17.806Z,2.60
2019-05-16T13:35:47.162Z,1.52
2019-05-16T13:38:17.263Z,1.25
2019-05-16T13:40:46.409Z,1.40
2019-05-16T13:43:17.267Z,1.70
2019-05-16T13:45:47.108Z,1.30
2019-05-16T13:48:17.193Z,1.50
2019-05-16T13:50:47.472Z,2.02
2019-05-16T13:53:17.513Z,2.00
2019-05-16T13:55:46.275Z,2.47
2019-05-16T13:58:17.854Z,1.65
2019-05-16T14:00:47.851Z,1.80
2019-05-16T14:03:17.947Z,1.35
2019-05-16T14:05:47.740Z,1.52
2019-05-16T14:08:17.102Z,1.75
2019-05-16T14:10:48.813Z,1.22
2019-05-16T14:13:16.626Z,2.00
2019-05-16T14:15:47.345Z,1.87
2019-05-16T14:18:17.634Z,1.70
2019-05-16T14:20:46.692Z,1.90
2019-05-16T14:23:17.651Z,1.60
2019-05-16T14:25:48.179Z,1.37
2019-05-16T14:28:17.396Z,1.67
2019-05-16T14:30:46.901Z,1.57
2019-05-16T14:33:17.141Z,1.50
2019-05-16T14:35:47.266Z,1.95
2019-05-16T14:38:17.542Z,1.52
2019-05-16T14:40:50.141Z,1.95
2019-05-16T14:43:17.370Z,1.85
2019-05-16T14:45:46.788Z,1.60
2019-05-16T14:48:18.149Z,1.60
2019-05-16T14:50:47.101Z,1.80
2019-05-16T14:53:17.977Z,2.08
2019-05-16T14:55:47.563Z,1.98
2019-05-16T14:58:16.595Z,1.30
2019-05-16T15:00:48.970Z,1.47
2019-05-16T15:03:17.909Z,1.90
2019-05-16T15:05:48.041Z,2.08
2019-05-16T15:08:18.207Z,2.30
2019-05-16T15:10:47.052Z,1.90
2019-05-16T15:13:17.528Z,1.82
2019-05-16T15:15:46.737Z,1.75
2019-05-16T15:18:17.700Z,1.55
2019-05-16T15:20:46.908Z,2.02
2019-05-16T15:23:17.505Z,1.87
2019-05-16T15:25:46.242Z,2.47
2019-05-16T15:28:17.214Z,1.90
2019-05-16T15:30:46.829Z,2.00
2019-05-16T15:33:19.412Z,1.77
2019-05-16T15:35:47.078Z,2.10
2019-05-16T15:38:16.694Z,2.17
2019-05-16T15:40:47.894Z,2.00
2019-05-16T15:43:18.069Z,1.27
2019-05-16T15:45:49.855Z,1.55
2019-05-16T15:48:17.410Z,1.40
2019-05-16T15:50:46.257Z,1.17
2019-05-16T15:53:17.494Z,1.22
2019-05-16T15:55:47.110Z,1.67
2019-05-16T15:58:18.064Z,2.25
2019-05-16T16:00:49.159Z,3.22
2019-05-16T16:03:18.067Z,2.08
2019-05-16T16:05:46.814Z,1.40
2019-05-16T16:08:18.030Z,1.62
2019-05-16T16:10:47.907Z,2.60
2019-05-16T16:13:19.742Z,2.40
2019-05-16T16:15:51.482Z,1.90
2019-05-16T16:18:20.998Z,1.62
2019-05-16T16:20:47.987Z,1.92
2019-05-16T16:23:17.793Z,3.45
2019-05-16T16:25:50.674Z,3.42
2019-05-16T16:28:17.769Z,2.02
2019-05-16T16:30:48.034Z,1.50
2019-05-16T16:33:25.488Z,3.55
2019-05-16T16:35:48.050Z,4.95
2019-05-16T16:38:17.143Z,3.17
2019-05-16T16:40:47.979Z,1.80
2019-05-16T16:43:16.391Z,2.87
2019-05-16T16:45:47.664Z,1.75
2019-05-16T16:48:17.365Z,1.70
2019-05-16T16:50:48.835Z,1.50
2019-05-16T16:53:18.292Z,2.00
2019-05-16T16:55:48.818Z,3.22
2019-05-16T16:58:18.325Z,2.30
2019-05-16T17:00:49.708Z,1.85
2019-05-16T17:03:20.040Z,1.35
2019-05-16T17:05:50.896Z,2.62
2019-05-16T17:08:23.235Z,2.35
2019-05-16T17:10:52.323Z,1.87
2019-05-16T17:13:22.505Z,1.40
2019-05-16T17:15:52.066Z,1.82
2019-05-16T17:18:21.043Z,1.60
2019-05-16T17:20:49.810Z,1.52
2019-05-16T17:23:19.267Z,2.05
2019-05-16T17:25:51.918Z,1.50
2019-05-16T17:28:22.475Z,1.60
2019-05-16T17:30:53.280Z,2.12
2019-05-16T17:33:23.046Z,1.92
2019-05-16T17:35:53.335Z,1.60
2019-05-16T17:38:23.528Z,1.50
2019-05-16T17:40:52.726Z,1.40
2019-05-16T17:43:22.688Z,2.55
2019-05-16T17:45:52.754Z,1.57
2019-05-16T17:48:26.605Z,1.60
2019-05-16T17:50:52.724Z,1.65
2019-05-16T17:53:21.556Z,1.60
2019-05-16T17:55:51.580Z,1.90
2019-05-16T17:58:20.707Z,1.77
2019-05-16T18:00:49.917Z,2.60
2019-05-16T18:03:19.615Z,2.55
2019-05-16T18:05:49.070Z,2.45
2019-05-16T18:08:18.552Z,1.67
2019-05-16T18:10:48.065Z,2.10
2019-05-16T18:13:16.836Z,1.80
2019-05-16T18:15:47.326Z,2.00
2019-05-16T18:18:17.662Z,2.37
2019-05-16T18:20:55.717Z,2.02
2019-05-16T18:23:17.084Z,1.50
2019-05-16T18:25:46.957Z,2.22
2019-05-16T18:28:17.528Z,1.57
2019-05-16T18:30:47.246Z,2.25
2019-05-16T18:33:16.636Z,2.00
2019-05-16T18:35:46.581Z,1.67
2019-05-16T18:38:15.500Z,2.15
2019-05-16T18:40:47.169Z,1.75
2019-05-16T18:43:16.671Z,2.10
2019-05-16T18:45:47.239Z,2.05
2019-05-16T18:48:16.024Z,1.98
2019-05-16T18:50:50.864Z,1.37
2019-05-16T18:53:19.618Z,1.70
2019-05-16T18:55:48.371Z,2.00
2019-05-16T18:58:18.098Z,1.90
2019-05-16T19:00:47.028Z,1.70
2019-05-16T19:03:16.500Z,2.30
2019-05-16T19:05:46.275Z,1.77
2019-05-16T19:08:16.370Z,3.02
2019-05-16T19:10:47.276Z,2.00
2019-05-16T19:13:18.857Z,1.98
2019-05-16T19:15:49.280Z,2.22
2019-05-16T19:18:18.044Z,2.15
2019-05-16T19:20:48.897Z,2.20
2019-05-16T19:23:18.268Z,2.08
2019-05-16T19:25:48.611Z,2.62
2019-05-16T19:28:17.461Z,2.20
2019-05-16T19:30:46.605Z,1.98
2019-05-16T19:33:17.410Z,1.85
2019-05-16T19:35:48.918Z,2.25
2019-05-16T19:38:17.590Z,2.30
2019-05-16T19:40:46.939Z,2.27
2019-05-16T19:45:46.586Z,1.92
2019-05-16T19:48:17.471Z,2.20
2019-05-16T19:50:46.441Z,2.35
2019-05-16T19:55:47.093Z,2.20
2019-05-16T19:58:16.393Z,2.72
2019-05-16T20:00:46.480Z,2.87
2019-05-16T20:03:16.684Z,3.30
2019-05-16T20:05:47.619Z,2.75
2019-05-16T20:08:17.533Z,2.98
2019-05-16T20:10:47.723Z,2.10
2019-05-16T20:13:16.840Z,3.00
2019-05-16T20:15:47.103Z,2.42
2019-05-16T20:18:18.196Z,2.10
2019-05-16T20:20:47.197Z,2.12
2019-05-16T20:23:18.423Z,3.00
2019-05-16T20:25:47.131Z,2.55
2019-05-16T20:28:18.222Z,2.60
2019-05-16T20:30:47.547Z,2.30
2019-05-16T20:33:17.936Z,2.37
2019-05-16T20:35:47.404Z,1.82
2019-05-16T20:38:17.281Z,2.70
2019-05-16T20:40:46.738Z,2.45
2019-05-16T20:43:16.840Z,2.45
2019-05-16T20:45:47.674Z,2.15
2019-05-16T20:48:18.538Z,2.10
2019-05-16T20:50:49.070Z,1.90
2019-05-16T20:53:17.675Z,2.22
2019-05-16T20:55:49.570Z,2.45
2019-05-16T20:58:17.298Z,2.42
2019-05-16T21:00:46.964Z,2.75
2019-05-16T21:03:16.589Z,2.15
2019-05-16T21:05:48.118Z,2.00
2019-05-16T21:08:17.210Z,2.20
2019-05-16T21:10:46.468Z,2.10
2019-05-16T21:13:17.183Z,2.33
2019-05-16T21:15:47.669Z,2.62
2019-05-16T21:18:16.602Z,2.33
2019-05-16T21:20:47.036Z,1.80
2019-05-16T21:23:16.639Z,2.10
2019-05-16T21:25:46.781Z,2.08
2019-05-16T21:28:17.092Z,2.47
2019-05-16T21:30:47.363Z,2.17
2019-05-16T21:33:18.418Z,2.05
2019-05-16T21:35:47.050Z,1.67
2019-05-16T21:38:16.532Z,1.98
2019-05-16T21:43:13.428Z,1.85
2019-05-16T21:45:42.236Z,2.00
2019-05-16T21:48:11.007Z,1.90
2019-05-16T21:50:39.732Z,2.08
2019-05-16T21:53:08.502Z,1.62
2019-05-16T21:55:38.416Z,1.67
2019-05-16T21:58:07.162Z,1.80
2019-05-16T22:00:43.038Z,1.65
2019-05-16T22:03:12.757Z,1.70
2019-05-16T22:05:41.574Z,1.90
2019-05-16T22:08:11.877Z,1.98
2019-05-16T22:10:40.804Z,2.60
2019-05-16T22:13:09.542Z,2.50
2019-05-16T22:15:38.347Z,3.60
2019-05-16T22:18:07.436Z,3.75
2019-05-16T22:20:36.311Z,5.30
2019-05-16T22:23:07.053Z,4.78
2019-05-16T22:25:35.586Z,5.03
2019-05-16T22:28:06.969Z,7.83
2019-05-16T22:30:36.543Z,9.45
2019-05-16T22:33:08.827Z,9.18
2019-05-16T22:35:37.487Z,11.08
2019-05-16T22:38:06.765Z,10.58
2019-05-16T22:40:37.340Z,10.13
2019-05-16T22:43:07.318Z,12.30
2019-05-16T22:45:37.327Z,11.50
2019-05-16T22:48:07.118Z,11.40
2019-05-16T22:50:36.582Z,9.40
2019-05-16T22:53:06.446Z,9.65
2019-05-16T22:55:37.204Z,8.63
2019-05-16T22:58:07.292Z,6.62
2019-05-16T23:00:39.273Z,4.45
2019-05-16T23:03:06.968Z,3.65
2019-05-16T23:05:36.890Z,2.70
2019-05-16T23:08:09.611Z,3.05
2019-05-16T23:10:36.801Z,2.22
2019-05-16T23:13:06.846Z,2.10
2019-05-16T23:15:35.786Z,1.80
2019-05-16T23:18:06.758Z,1.90
2019-05-16T23:20:36.999Z,2.08
2019-05-16T23:23:07.214Z,1.98
2019-05-16T23:25:37.067Z,2.35
2019-05-16T23:28:07.692Z,1.90
2019-05-16T23:30:36.962Z,1.35
2019-05-16T23:33:07.259Z,2.40
2019-05-16T23:35:37.554Z,1.98
2019-05-16T23:38:18.478Z,1.60
2019-05-16T23:40:37.567Z,1.90
2019-05-16T23:43:07.529Z,2.10
2019-05-16T23:45:37.524Z,1.90
2019-05-16T23:48:10.518Z,1.65
2019-05-16T23:50:37.106Z,1.65
2019-05-16T23:53:07.310Z,1.95
2019-05-16T23:55:37.307Z,1.70
2019-05-16T23:58:06.935Z,1.45
